Time;durP1;ratioP1;P1;durP2;ratioP2;P2;SDS_P1;SDS_P2;PMS_P1;PMS_P2;Temp;Humidity;BMP_temperature;BMP_pressure;BME280_temperature;BME280_humidity;BME280_pressure;Samples;Min_cycle;Max_cycle;Signal;HPM_P1;HPM_P2
2022/07/04 00:00:46;;;;;;;0.70;0.70;;;;;;;20.71;55.49;98821.78;4114308;28;20269;-59
2022/07/04 00:02:49;;;;;;;3.15;0.70;;;;;;;20.66;55.92;98819.91;4132753;28;20214;-59
2022/07/04 00:04:50;;;;;;;0.80;0.60;;;;;;;20.66;55.68;98819.91;4113155;28;20317;-59
2022/07/04 00:06:53;;;;;;;3.40;0.80;;;;;;;20.61;55.90;98821.94;4131594;28;21161;-59
2022/07/04 00:08:55;;;;;;;2.58;0.60;;;;;;;20.56;56.25;98824.81;4129193;28;20751;-59
2022/07/04 00:10:56;;;;;;;0.98;0.50;;;;;;;20.57;55.98;98826.50;4130395;28;20238;-58
2022/07/04 00:12:58;;;;;;;1.25;0.80;;;;;;;20.49;55.97;98816.06;4120960;28;20237;-59
2022/07/04 00:15:00;;;;;;;2.47;0.70;;;;;;;20.47;56.01;98815.56;4132312;28;20300;-59
2022/07/04 00:17:02;;;;;;;2.83;0.80;;;;;;;20.43;56.12;98820.06;4130972;28;20233;-59
2022/07/04 00:19:04;;;;;;;2.20;0.63;;;;;;;20.43;56.21;98814.50;4130158;28;20247;-59
2022/07/04 00:21:05;;;;;;;1.60;0.60;;;;;;;20.44;56.13;98816.19;4129015;28;20328;-59
2022/07/04 00:23:07;;;;;;;1.30;0.63;;;;;;;20.42;56.04;98818.41;4130255;28;20216;-59
2022/07/04 00:25:08;;;;;;;2.75;0.65;;;;;;;20.35;56.14;98807.72;4129596;28;20213;-59
2022/07/04 00:27:10;;;;;;;0.65;0.50;;;;;;;20.30;56.22;98812.56;4129474;28;20652;-59
2022/07/04 00:29:11;;;;;;;4.15;0.60;;;;;;;20.29;56.24;98819.22;4130187;28;20326;-59
2022/07/04 00:31:13;;;;;;;1.83;0.73;;;;;;;20.18;56.51;98812.19;4127682;28;20199;-58
2022/07/04 00:33:15;;;;;;;2.95;0.95;;;;;;;20.14;56.61;98812.00;4129128;28;20217;-58
2022/07/04 00:35:17;;;;;;;1.40;0.52;;;;;;;20.13;56.54;98809.50;4112520;28;20317;-58
2022/07/04 00:37:19;;;;;;;1.55;0.70;;;;;;;20.08;56.72;98806.81;4133668;28;20300;-59
2022/07/04 00:39:20;;;;;;;1.05;0.68;;;;;;;20.03;56.81;98810.47;4131794;28;20717;-58
2022/07/04 00:41:22;;;;;;;2.35;0.55;;;;;;;20.04;56.84;98805.75;4130971;28;20799;-59
2022/07/04 00:43:25;;;;;;;1.05;0.60;;;;;;;19.99;56.90;98819.72;4132415;28;20777;-59
2022/07/04 00:45:27;;;;;;;4.90;1.05;;;;;;;19.98;57.11;98812.53;4130042;28;20641;-58
2022/07/04 00:47:28;;;;;;;2.25;0.57;;;;;;;19.98;57.09;98818.88;4128880;28;20617;-59
2022/07/04 00:49:30;;;;;;;0.75;0.55;;;;;;;19.96;57.06;98823.94;4129544;28;20356;-59
2022/07/04 00:51:32;;;;;;;1.48;0.60;;;;;;;19.91;57.24;98824.00;4130557;28;20296;-59
2022/07/04 00:53:34;;;;;;;1.40;0.70;;;;;;;19.83;57.40;98826.63;4129049;28;20235;-59
2022/07/04 00:55:36;;;;;;;1.30;0.40;;;;;;;19.76;57.51;98831.75;4127932;28;20212;-59
2022/07/04 00:57:37;;;;;;;2.83;0.50;;;;;;;19.70;57.96;98838.50;4132670;28;20227;-58
2022/07/04 00:59:39;;;;;;;0.65;0.50;;;;;;;19.64;57.89;98835.00;4130764;28;20390;-59
2022/07/04 01:01:40;;;;;;;0.60;0.50;;;;;;;19.62;57.99;98848.38;4115231;28;20755;-59
2022/07/04 01:03:42;;;;;;;0.90;0.60;;;;;;;19.61;58.06;98851.44;4129295;28;20675;-58
2022/07/04 01:05:44;;;;;;;0.70;0.70;;;;;;;19.44;58.51;98851.16;4110587;28;20285;-58
2022/07/04 01:07:46;;;;;;;2.08;0.57;;;;;;;19.46;58.28;98857.22;4112457;28;20654;-59
2022/07/04 01:09:48;;;;;;;4.57;0.70;;;;;;;19.42;58.52;98853.38;4130782;28;20710;-58
2022/07/04 01:11:50;;;;;;;2.05;0.63;;;;;;;19.42;58.31;98853.38;4131547;28;20209;-58
2022/07/04 01:13:55;;;;;;;1.75;0.70;;;;;;;19.40;58.41;98873.13;4127131;28;20258;-58
2022/07/04 01:15:57;;;;;;;1.17;0.90;;;;;;;19.34;58.60;98867.91;4130134;28;20294;-58
2022/07/04 01:17:58;;;;;;;1.77;0.65;;;;;;;19.09;58.82;98876.53;4130587;28;20202;-58
2022/07/04 01:20:01;;;;;;;4.05;0.73;;;;;;;19.16;58.57;98872.28;4115527;28;20237;-57
2022/07/04 01:22:06;;;;;;;1.85;0.70;;;;;;;19.25;58.27;98876.06;4134641;28;20204;-59
2022/07/04 01:24:11;;;;;;;1.30;0.65;;;;;;;19.03;59.01;98886.03;4116743;28;20293;-59
2022/07/04 01:26:13;;;;;;;1.15;0.70;;;;;;;18.73;59.45;98889.97;4135403;28;20289;-59
2022/07/04 01:28:14;;;;;;;3.50;1.85;;;;;;;18.37;60.82;98891.47;4133738;28;20213;-59
2022/07/04 01:30:16;;;;;;;0.70;0.70;;;;;;;18.11;61.82;98897.50;4132302;28;20314;-59
2022/07/04 01:32:18;;;;;;;0.98;0.85;;;;;;;17.90;62.44;98901.50;4130166;28;20245;-58
2022/07/04 01:34:19;;;;;;;2.53;0.65;;;;;;;18.05;62.07;98901.41;4131252;28;20210;-58
2022/07/04 01:36:21;;;;;;;1.08;0.63;;;;;;;18.15;61.69;98909.63;4131850;28;20294;-59
2022/07/04 01:38:23;;;;;;;1.42;0.80;;;;;;;18.25;61.29;98901.25;4132540;28;20251;-59
2022/07/04 01:40:24;;;;;;;4.78;1.10;;;;;;;18.32;61.20;98910.09;4132492;28;20234;-59
2022/07/04 01:42:26;;;;;;;1.65;0.73;;;;;;;18.35;61.19;98917.81;4135956;28;20317;-59
2022/07/04 01:44:27;;;;;;;1.30;0.55;;;;;;;18.44;60.70;98918.84;4134145;28;20273;-59
2022/07/04 01:46:29;;;;;;;3.25;0.93;;;;;;;18.52;60.63;98909.91;4132659;28;20985;-59
2022/07/04 01:48:30;;;;;;;2.40;0.90;;;;;;;18.42;60.87;98910.81;4129828;28;20202;-59
2022/07/04 01:50:32;;;;;;;0.77;0.60;;;;;;;18.47;60.78;98909.94;4131613;28;20769;-58
2022/07/04 01:52:34;;;;;;;1.52;0.80;;;;;;;18.47;61.08;98907.16;4134391;28;20790;-59
2022/07/04 01:54:36;;;;;;;1.05;0.70;;;;;;;18.45;61.26;98906.63;4133606;28;20202;-58
2022/07/04 01:56:39;;;;;;;1.85;0.93;;;;;;;18.51;60.84;98903.53;4135775;28;20234;-58
2022/07/04 01:58:40;;;;;;;0.73;0.60;;;;;;;18.54;60.88;98902.09;4136202;28;20559;-58
2022/07/04 02:03:02;;;;;;;1.65;0.88;;;;;;;18.60;60.80;98907.34;4132208;28;20289;-58
2022/07/04 02:05:04;;;;;;;0.75;0.60;;;;;;;18.59;60.86;98902.06;4130287;28;20212;-59
2022/07/04 02:07:06;;;;;;;0.70;0.70;;;;;;;18.58;61.01;98903.19;4115802;28;20338;-59
2022/07/04 02:09:16;;;;;;;3.03;1.00;;;;;;;18.52;61.34;98909.91;4114674;28;20317;-58
2022/07/04 02:11:18;;;;;;;1.90;0.88;;;;;;;18.30;61.73;98912.25;4117325;28;20245;-59
2022/07/04 02:13:19;;;;;;;1.48;0.55;;;;;;;18.20;61.71;98915.13;4131879;28;20321;-58
2022/07/04 02:15:21;;;;;;;0.70;0.60;;;;;;;18.20;61.81;98906.81;4134585;28;20206;-58
2022/07/04 02:17:23;;;;;;;0.98;0.70;;;;;;;18.23;61.55;98906.22;4116222;28;20762;-58
2022/07/04 02:19:24;;;;;;;1.15;0.73;;;;;;;18.26;61.79;98911.22;4132132;28;20261;-58
2022/07/04 02:21:26;;;;;;;1.25;0.75;;;;;;;18.27;61.66;98912.84;4131284;28;21022;-58
2022/07/04 02:23:27;;;;;;;1.48;0.63;;;;;;;18.26;61.71;98905.66;4132586;28;20317;-58
2022/07/04 02:25:30;;;;;;;0.77;0.77;;;;;;;18.25;61.67;98901.25;4131037;28;20296;-58
2022/07/04 02:27:32;;;;;;;2.33;0.80;;;;;;;18.26;61.64;98902.91;4134389;28;20292;-58
2022/07/04 02:29:34;;;;;;;4.18;0.80;;;;;;;18.23;61.73;98900.69;4133319;28;20570;-59
2022/07/04 02:31:35;;;;;;;2.38;0.93;;;;;;;18.14;62.11;98902.44;4100350;28;20283;-58
2022/07/04 02:33:37;;;;;;;2.72;0.68;;;;;;;18.06;62.29;98905.84;4132285;28;20205;-58
2022/07/04 02:35:38;;;;;;;4.22;0.90;;;;;;;17.96;62.65;98906.72;4130548;28;20202;-58
2022/07/04 02:37:40;;;;;;;1.65;0.70;;;;;;;17.89;63.02;98905.38;4132059;28;20624;-57
2022/07/04 02:39:42;;;;;;;1.40;0.80;;;;;;;17.85;63.02;98898.78;4114704;28;20679;-58
2022/07/04 02:41:44;;;;;;;0.90;0.70;;;;;;;17.80;63.18;98904.34;4133205;28;20656;-59
2022/07/04 02:43:45;;;;;;;0.73;0.60;;;;;;;17.73;63.39;98906.63;4132827;28;20726;-58
2022/07/04 02:45:47;;;;;;;0.88;0.60;;;;;;;17.70;63.61;98901.63;4130090;28;20301;-58
2022/07/04 02:47:48;;;;;;;1.05;0.70;;;;;;;17.69;63.44;98899.97;4133953;28;20240;-58
2022/07/04 02:49:50;;;;;;;0.80;0.80;;;;;;;17.66;63.81;98900.56;4131694;28;20254;-58
2022/07/04 02:51:51;;;;;;;4.13;0.82;;;;;;;17.63;63.68;98906.66;4102884;28;20310;-58
2022/07/04 02:53:53;;;;;;;4.97;0.80;;;;;;;17.58;63.69;98915.03;4113160;28;20202;-57
2022/07/04 02:55:54;;;;;;;1.17;0.80;;;;;;;17.55;63.71;98924.72;4130966;28;20581;-58
2022/07/04 02:57:56;;;;;;;1.05;0.70;;;;;;;17.54;63.69;98920.31;4114003;28;20209;-58
2022/07/04 02:59:58;;;;;;;0.80;0.80;;;;;;;17.52;63.80;98921.69;4130148;28;20648;-57
2022/07/04 03:01:59;;;;;;;2.53;0.80;;;;;;;17.49;63.84;98917.56;4132079;28;20257;-58
2022/07/04 03:04:02;;;;;;;2.58;0.80;;;;;;;17.46;63.68;98922.81;4114047;28;20204;-58
2022/07/04 03:06:04;;;;;;;2.20;0.90;;;;;;;17.41;63.86;98928.38;4114264;28;20210;-59
2022/07/04 03:08:05;;;;;;;1.33;0.77;;;;;;;17.37;63.91;98922.59;4129550;28;20297;-58
2022/07/04 03:10:07;;;;;;;2.05;0.80;;;;;;;17.32;64.37;98932.81;4131702;28;20234;-58
2022/07/04 03:12:09;;;;;;;1.88;0.85;;;;;;;17.26;64.46;98937.53;4131219;28;20228;-58
2022/07/04 03:14:11;;;;;;;2.20;0.95;;;;;;;17.24;64.38;98931.47;4131716;28;20221;-58
2022/07/04 03:16:12;;;;;;;1.08;0.75;;;;;;;17.21;64.72;98936.72;4132423;28;20297;-58
2022/07/04 03:18:14;;;;;;;1.00;0.90;;;;;;;17.21;64.40;98936.72;4131540;28;20285;-58
2022/07/04 03:20:15;;;;;;;2.45;0.90;;;;;;;17.24;64.44;98936.16;4133686;28;22435;-58
2022/07/04 03:22:17;;;;;;;1.77;0.98;;;;;;;17.25;64.34;98944.19;4131960;28;20213;-58
2022/07/04 03:24:18;;;;;;;2.28;0.95;;;;;;;17.25;64.43;98943.38;4128597;28;20289;-58
2022/07/04 03:26:20;;;;;;;2.80;0.90;;;;;;;17.24;64.48;98938.91;4131220;28;20203;-58
2022/07/04 03:28:22;;;;;;;1.23;0.90;;;;;;;17.21;64.66;98945.03;4114053;28;20782;-59
2022/07/04 03:30:23;;;;;;;0.60;0.60;;;;;;;17.13;64.93;98945.63;4129323;28;20304;-59
2022/07/04 03:32:25;;;;;;;2.88;0.90;;;;;;;16.82;65.93;98954.28;4132098;28;20244;-58
2022/07/04 03:34:26;;;;;;;0.98;0.73;;;;;;;16.79;66.04;98950.13;4133383;28;20210;-58
2022/07/04 03:36:28;;;;;;;0.95;0.80;;;;;;;16.83;65.67;98948.44;4112952;28;20203;-58
2022/07/04 03:38:29;;;;;;;1.75;1.65;;;;;;;16.88;65.32;98948.44;4130672;28;20679;-58
2022/07/04 03:40:32;;;;;;;2.50;0.90;;;;;;;16.92;65.37;98950.38;4130497;28;20293;-58
2022/07/04 03:42:33;;;;;;;0.90;0.90;;;;;;;16.92;65.39;98949.56;4135057;28;20262;-60
2022/07/04 03:44:35;;;;;;;0.95;0.80;;;;;;;16.90;65.39;98954.50;4130762;28;20302;-58
2022/07/04 03:46:36;;;;;;;2.25;1.00;;;;;;;16.86;65.57;98947.06;4131037;28;20668;-58
2022/07/04 03:48:38;;;;;;;6.63;1.10;;;;;;;16.80;65.90;98957.31;4132674;28;20218;-58
2022/07/04 03:50:40;;;;;;;1.48;0.70;;;;;;;16.75;65.77;98954.56;4134144;28;20229;-58
2022/07/04 03:52:42;;;;;;;0.98;0.90;;;;;;;16.75;65.82;98954.56;4131629;28;20199;-58
2022/07/04 03:54:43;;;;;;;0.82;0.75;;;;;;;16.74;65.64;98957.59;4130266;28;20202;-58
2022/07/04 03:56:45;;;;;;;0.70;0.70;;;;;;;16.76;65.50;98955.41;4129758;28;20210;-58
2022/07/04 03:58:48;;;;;;;0.80;0.80;;;;;;;16.80;65.54;98949.03;4130310;28;20208;-58
2022/07/04 04:00:50;;;;;;;10.98;1.02;;;;;;;16.79;65.39;98952.91;4131947;28;20249;-59
2022/07/04 04:02:52;;;;;;;0.82;0.82;;;;;;;16.83;65.23;98947.63;4132038;28;20213;-58
2022/07/04 04:07:14;;;;;;;1.10;1.00;;;;;;;16.85;65.36;98943.50;4130481;28;20209;-58
2022/07/04 04:09:18;;;;;;;1.00;0.90;;;;;;;16.86;65.37;98945.16;4131315;28;20280;-58
2022/07/04 04:11:19;;;;;;;0.70;0.70;;;;;;;16.88;65.55;98947.63;4132034;28;20202;-58
2022/07/04 04:13:21;;;;;;;2.25;0.90;;;;;;;16.89;65.43;98944.56;4130902;28;20659;-58
2022/07/04 04:15:22;;;;;;;0.80;0.60;;;;;;;16.89;65.52;98950.09;4130570;28;20231;-58
2022/07/04 04:17:24;;;;;;;0.95;0.90;;;;;;;16.87;65.74;98944.03;4128350;28;20293;-58
2022/07/04 04:19:26;;;;;;;1.02;0.88;;;;;;;16.89;65.83;98950.09;4127286;28;20329;-60
2022/07/04 04:21:27;;;;;;;1.10;1.00;;;;;;;16.87;66.08;98946.78;4127157;28;20824;-58
2022/07/04 04:23:29;;;;;;;1.83;0.98;;;;;;;16.83;66.39;98955.94;4128732;28;20210;-58
2022/07/04 04:25:30;;;;;;;1.00;0.90;;;;;;;16.78;66.27;98948.47;4126881;28;20619;-59
2022/07/04 04:27:32;;;;;;;2.05;1.00;;;;;;;16.77;66.52;98957.84;4115097;28;20228;-58
2022/07/04 04:29:33;;;;;;;1.48;0.90;;;;;;;16.75;66.31;98943.50;4112321;28;20330;-58
2022/07/04 04:31:36;;;;;;;2.40;1.08;;;;;;;16.75;66.44;98953.75;4126881;28;20289;-58
2022/07/04 04:33:37;;;;;;;4.18;0.95;;;;;;;16.73;66.33;98953.16;4128930;28;20297;-59
2022/07/04 04:35:39;;;;;;;0.85;0.85;;;;;;;16.75;66.43;98953.75;4111929;28;20206;-58
2022/07/04 04:37:40;;;;;;;3.65;0.90;;;;;;;16.75;66.28;98954.56;4110303;28;20208;-58
2022/07/04 04:39:42;;;;;;;1.13;0.98;;;;;;;16.78;66.59;98959.53;4134284;28;20243;-58
2022/07/04 04:41:43;;;;;;;2.20;1.02;;;;;;;16.82;66.52;98960.63;4131481;28;20217;-58
2022/07/04 04:43:45;;;;;;;7.45;1.17;;;;;;;16.85;66.34;98965.59;4131852;28;20292;-57
2022/07/04 04:45:53;;;;;;;1.35;1.00;;;;;;;16.87;66.21;98963.38;4130298;28;20198;-58
2022/07/04 04:47:54;;;;;;;1.58;1.25;;;;;;;16.90;66.24;98968.34;4128074;28;20202;-58
2022/07/04 04:49:56;;;;;;;1.35;0.98;;;;;;;16.95;66.23;98962.81;4123766;28;20253;-57
2022/07/04 04:51:57;;;;;;;2.15;1.58;;;;;;;16.93;66.52;98968.59;4126378;28;20244;-58
2022/07/04 04:53:59;;;;;;;2.42;0.98;;;;;;;16.91;66.61;98981.09;4126718;28;20248;-58
2022/07/04 04:56:01;;;;;;;1.52;1.02;;;;;;;16.82;67.28;98977.22;4124489;28;20849;-58
2022/07/04 04:58:02;;;;;;;2.95;1.67;;;;;;;16.66;67.65;98977.50;4125241;28;20601;-59
2022/07/04 05:00:04;;;;;;;1.90;1.17;;;;;;;16.63;67.89;98981.66;4126174;28;20253;-59
2022/07/04 05:02:06;;;;;;;1.10;1.00;;;;;;;16.41;68.42;98986.63;4112080;28;20234;-58
2022/07/04 05:04:08;;;;;;;3.35;1.13;;;;;;;16.46;68.49;98983.88;4130113;28;20236;-59
2022/07/04 05:06:09;;;;;;;0.90;0.90;;;;;;;16.60;67.75;98982.22;4111144;28;20210;-59
2022/07/04 05:08:14;;;;;;;3.55;1.10;;;;;;;16.73;67.21;98992.72;4128892;28;20245;-58
2022/07/04 05:10:16;;;;;;;1.67;0.90;;;;;;;16.87;66.63;98991.03;4109070;28;20279;-58
2022/07/04 05:12:18;;;;;;;2.08;1.10;;;;;;;16.99;66.80;98991.56;4125382;28;20206;-58
2022/07/04 05:14:19;;;;;;;1.58;1.08;;;;;;;17.05;66.62;98995.97;4127733;28;20289;-59
2022/07/04 05:16:21;;;;;;;1.88;1.08;;;;;;;17.18;66.25;98993.44;4126217;28;20288;-58
2022/07/04 05:18:22;;;;;;;2.00;1.00;;;;;;;17.25;66.06;98993.16;4126687;28;20253;-58
2022/07/04 05:20:24;;;;;;;1.50;1.10;;;;;;;17.32;65.92;98993.69;4129869;28;20681;-58
2022/07/04 05:22:25;;;;;;;1.83;1.10;;;;;;;17.37;65.75;98990.91;4111206;28;20677;-59
2022/07/04 05:24:27;;;;;;;1.88;1.02;;;;;;;17.34;66.09;99002.53;4132513;28;20293;-58
2022/07/04 05:26:29;;;;;;;1.90;0.90;;;;;;;17.44;65.89;99002.53;4129301;28;20232;-58
2022/07/04 05:28:30;;;;;;;0.80;0.80;;;;;;;17.29;66.37;98999.78;4128652;28;20213;-58
2022/07/04 05:30:32;;;;;;;5.38;1.25;;;;;;;17.23;66.27;99000.91;4125719;28;20240;-58
2022/07/04 05:32:34;;;;;;;1.10;1.00;;;;;;;17.29;66.25;99005.31;4125798;28;20804;-58
2022/07/04 05:34:35;;;;;;;3.95;1.00;;;;;;;17.33;66.43;99000.88;4127698;28;20238;-58
2022/07/04 05:36:37;;;;;;;1.60;0.98;;;;;;;17.62;65.49;99005.50;4129167;28;20202;-58
2022/07/04 05:38:38;;;;;;;3.85;1.00;;;;;;;17.66;65.39;99003.81;4113117;28;20237;-58
2022/07/04 05:40:40;;;;;;;3.45;1.05;;;;;;;17.84;65.37;99013.44;4131092;28;20308;-59
2022/07/04 05:42:41;;;;;;;1.77;1.20;;;;;;;17.78;65.45;99015.38;4129354;28;20244;-58
2022/07/04 05:44:43;;;;;;;1.50;1.40;;;;;;;17.91;65.71;99008.41;4127307;28;20285;-58
2022/07/04 05:46:45;;;;;;;5.60;1.17;;;;;;;18.19;66.24;99007.69;4112928;28;20675;-58
2022/07/04 05:48:47;;;;;;;3.40;0.90;;;;;;;18.50;64.15;99017.44;4130248;28;20210;-58
2022/07/04 05:50:49;;;;;;;4.65;1.17;;;;;;;18.37;63.67;99012.56;4130037;28;20201;-58
2022/07/04 05:52:50;;;;;;;2.17;1.17;;;;;;;18.40;65.04;99014.78;4112189;28;20302;-59
2022/07/04 05:54:52;;;;;;;3.05;1.10;;;;;;;18.62;64.58;99010.44;4128842;28;20210;-58
2022/07/04 05:56:53;;;;;;;2.20;1.33;;;;;;;18.83;64.50;99016.63;4126260;28;20237;-58
2022/07/04 05:58:55;;;;;;;2.25;1.10;;;;;;;19.03;63.42;99013.66;4108498;28;20341;-58
2022/07/04 06:00:56;;;;;;;2.13;1.13;;;;;;;19.14;63.21;99012.44;4101369;28;20294;-58
2022/07/04 06:02:58;;;;;;;5.45;1.00;;;;;;;19.32;62.97;99008.97;4128476;28;20312;-59
2022/07/04 06:05:00;;;;;;;1.90;1.20;;;;;;;19.49;62.52;99020.41;4129772;28;20667;-58
2022/07/04 06:07:02;;;;;;;6.13;1.40;;;;;;;19.67;63.25;99011.31;4130905;28;20233;-59
2022/07/04 06:09:04;;;;;;;2.10;1.15;;;;;;;19.82;62.09;99013.88;4132673;28;20675;-59
2022/07/04 06:11:05;;;;;;;1.55;1.10;;;;;;;19.87;61.23;98999.94;4132478;28;20317;-59
2022/07/04 06:13:07;;;;;;;2.70;1.17;;;;;;;20.01;61.70;99006.41;4130497;28;20209;-59
2022/07/04 06:15:10;;;;;;;1.30;0.95;;;;;;;20.13;60.65;99004.06;4131923;28;20217;-59
2022/07/04 06:17:12;;;;;;;1.83;0.93;;;;;;;19.78;60.90;98998.97;4132199;28;20293;-58
2022/07/04 06:19:13;;;;;;;3.20;0.90;;;;;;;19.63;61.53;98999.13;4132746;28;20308;-59
2022/07/04 06:21:15;;;;;;;1.92;1.27;;;;;;;19.93;61.42;98998.75;4130513;28;20317;-59
2022/07/04 06:23:16;;;;;;;2.05;0.70;;;;;;;20.07;60.89;98996.91;4129780;28;20288;-59
2022/07/04 06:25:19;;;;;;;3.38;1.25;;;;;;;20.28;60.60;99001.88;4131159;28;20245;-59
2022/07/04 06:27:22;;;;;;;1.17;0.93;;;;;;;20.25;60.36;99001.66;4115436;28;20302;-58
2022/07/04 06:29:23;;;;;;;1.58;0.88;;;;;;;20.30;59.72;98994.06;4128546;28;20640;-59
2022/07/04 06:31:25;;;;;;;2.28;0.98;;;;;;;20.42;60.21;98997.22;4132424;28;20206;-59
2022/07/04 06:33:26;;;;;;;4.00;0.82;;;;;;;20.53;59.52;98997.88;4129506;28;20208;-58
2022/07/04 06:35:45;;;;;;;3.03;1.13;;;;;;;20.65;58.84;99001.03;4132764;28;20398;-59
2022/07/04 06:37:47;;;;;;;1.15;0.90;;;;;;;20.73;58.31;98989.19;4119086;28;20233;-58
2022/07/04 06:39:49;;;;;;;1.75;0.90;;;;;;;20.70;58.92;98992.59;4128974;28;20665;-59
2022/07/04 06:41:50;;;;;;;6.35;1.25;;;;;;;20.70;58.99;98993.41;4131882;28;20225;-59
2022/07/04 06:43:52;;;;;;;1.00;0.90;;;;;;;20.85;58.85;98995.13;4133083;28;20213;-59
2022/07/04 06:45:54;;;;;;;1.95;0.60;;;;;;;21.06;58.90;98994.47;4129977;28;20233;-59
2022/07/04 06:47:56;;;;;;;2.25;0.88;;;;;;;21.17;58.21;98987.56;4131625;28;20240;-58
2022/07/04 06:49:57;;;;;;;2.67;0.88;;;;;;;21.30;57.91;98986.78;4130527;28;20235;-59
2022/07/04 06:52:17;;;;;;;2.67;0.77;;;;;;;21.44;57.38;98986.78;4126711;28;20217;-59
2022/07/04 06:54:19;;;;;;;3.33;1.15;;;;;;;21.49;56.98;98983.88;4125507;28;20298;-59
2022/07/04 06:56:20;;;;;;;4.30;1.17;;;;;;;21.51;57.24;98992.78;4132762;28;20251;-59
2022/07/04 06:58:22;;;;;;;2.55;0.90;;;;;;;21.56;56.96;98989.88;4116969;28;20271;-59
2022/07/04 07:00:24;;;;;;;5.18;1.02;;;;;;;21.61;57.04;98986.97;4133546;28;20736;-59
2022/07/04 07:02:25;;;;;;;3.25;1.10;;;;;;;21.61;56.46;98992.56;4132829;28;20233;-58
2022/07/04 07:04:27;;;;;;;1.25;1.00;;;;;;;21.62;56.80;98983.06;4133176;28;20593;-59
2022/07/04 07:06:28;;;;;;;3.35;1.00;;;;;;;21.74;56.38;98980.63;4131951;28;20320;-59
2022/07/04 07:08:30;;;;;;;1.98;0.95;;;;;;;21.88;54.96;98981.41;4127601;28;20248;-59
2022/07/04 07:10:35;;;;;;;2.45;1.02;;;;;;;22.02;55.66;98979.44;4131747;28;20695;-59
2022/07/04 07:12:36;;;;;;;2.75;1.00;;;;;;;21.74;55.43;98980.63;4129797;28;20202;-59
2022/07/04 07:14:38;;;;;;;3.72;0.88;;;;;;;21.76;55.94;98978.34;4128047;28;20216;-59
2022/07/04 07:16:40;;;;;;;5.40;1.15;;;;;;;21.39;55.27;98978.53;4130401;28;20641;-59
2022/07/04 07:18:42;;;;;;;2.15;0.85;;;;;;;21.49;55.87;98972.75;4133422;28;20205;-59
2022/07/04 07:20:45;;;;;;;4.13;1.13;;;;;;;21.54;55.04;98981.00;4099723;28;20495;-59
2022/07/04 07:22:47;;;;;;;1.40;0.98;;;;;;;21.72;53.86;98971.75;4126827;28;20452;-59
2022/07/04 07:24:49;;;;;;;2.70;1.10;;;;;;;20.61;55.73;98974.94;4107103;28;20206;-59
2022/07/04 07:26:50;;;;;;;1.85;0.85;;;;;;;21.15;56.18;98969.53;4127825;28;20248;-65
2022/07/04 07:28:52;;;;;;;2.78;0.90;;;;;;;21.66;55.41;98968.25;4110246;28;20946;-61
2022/07/04 07:30:53;;;;;;;3.35;0.80;;;;;;;21.99;54.51;98963.34;4128411;28;20205;-58
2022/07/04 07:32:56;;;;;;;0.80;0.80;;;;;;;22.23;54.49;98961.13;4130030;28;20280;-62
2022/07/04 07:34:57;;;;;;;4.38;0.93;;;;;;;22.50;54.56;98961.84;4110074;28;20237;-61
2022/07/04 07:36:59;;;;;;;2.72;0.73;;;;;;;22.50;53.48;98967.44;4133191;28;20764;-61
2022/07/04 07:39:01;;;;;;;1.88;1.17;;;;;;;22.52;52.27;98961.56;4128055;28;20262;-62
2022/07/04 07:41:02;;;;;;;0.95;0.70;;;;;;;22.57;53.88;98961.44;4128367;28;20246;-61
2022/07/04 07:43:04;;;;;;;2.05;0.82;;;;;;;22.70;52.18;98954.97;4127539;28;20228;-61
2022/07/04 07:45:07;;;;;;;10.45;1.38;;;;;;;22.93;53.55;98964.94;4124007;28;20209;-60
2022/07/04 07:47:08;;;;;;;0.60;0.57;;;;;;;23.19;51.82;98963.16;4127187;28;20338;-61
2022/07/04 07:49:14;;;;;;;4.60;1.40;;;;;;;23.29;52.48;98957.28;4129230;28;20224;-61
2022/07/04 07:51:16;;;;;;;5.13;1.10;;;;;;;23.15;50.89;98962.94;4125676;28;20289;-61
2022/07/04 07:53:18;;;;;;;3.03;0.75;;;;;;;23.13;50.11;98958.81;4113194;28;20345;-61
2022/07/04 07:55:19;;;;;;;0.82;0.70;;;;;;;23.07;51.50;98960.09;4111309;28;20216;-61
2022/07/04 07:57:21;;;;;;;1.20;0.68;;;;;;;23.07;50.45;98969.31;4129504;28;20213;-60
2022/07/04 07:59:23;;;;;;;1.48;0.60;;;;;;;22.84;51.29;98964.09;4128226;28;20299;-61
2022/07/04 08:01:24;;;;;;;1.45;1.00;;;;;;;22.55;50.17;98958.13;4130919;28;20213;-60
2022/07/04 08:05:46;;;;;;;2.72;0.95;;;;;;;22.70;51.65;98960.53;4116326;28;20314;-60
2022/07/04 08:07:48;;;;;;;2.67;1.00;;;;;;;22.70;49.74;98954.97;4132371;28;20204;-59
2022/07/04 08:09:50;;;;;;;3.20;1.20;;;;;;;23.07;50.94;98960.94;4111958;28;20309;-58
2022/07/04 08:11:51;;;;;;;2.72;0.88;;;;;;;23.16;48.97;98966.59;4112726;28;20634;-59
2022/07/04 08:13:53;;;;;;;2.60;0.85;;;;;;;23.06;49.63;98958.47;4125439;28;20660;-59
2022/07/04 08:15:54;;;;;;;2.33;0.82;;;;;;;22.95;49.53;98959.88;4129644;28;20207;-60
2022/07/04 08:17:56;;;;;;;1.73;0.60;;;;;;;22.99;49.41;98960.88;4131841;28;20211;-59
2022/07/04 08:19:58;;;;;;;2.05;0.90;;;;;;;23.23;49.92;98953.00;4130275;28;20220;-60
2022/07/04 08:22:00;;;;;;;2.78;0.73;;;;;;;23.17;49.81;98959.88;4128689;28;20229;-59
2022/07/04 08:24:17;;;;;;;1.17;0.60;;;;;;;23.48;50.00;98949.47;4127952;28;20713;-59
2022/07/04 08:26:20;;;;;;;1.63;0.75;;;;;;;23.58;49.46;98944.41;4129546;28;20609;-59
2022/07/04 08:28:25;;;;;;;0.70;0.70;;;;;;;23.89;48.32;98949.97;4129745;28;20213;-60
2022/07/04 08:30:27;;;;;;;1.23;0.60;;;;;;;23.80;48.18;98952.72;4112899;28;20239;-59
2022/07/04 08:32:28;;;;;;;2.53;0.73;;;;;;;24.16;47.62;98950.50;4130091;28;20263;-59
2022/07/04 08:34:31;;;;;;;0.73;0.52;;;;;;;24.58;47.53;98947.72;4127669;28;20240;-59
2022/07/04 08:36:32;;;;;;;1.67;0.98;;;;;;;24.55;47.42;98953.97;4128305;28;20202;-59
2022/07/04 08:38:34;;;;;;;2.20;0.80;;;;;;;24.63;47.95;98955.13;4114577;28;20688;-59
2022/07/04 08:40:36;;;;;;;9.07;1.55;;;;;;;24.83;46.82;98960.88;4128381;28;20210;-59
2022/07/04 08:42:38;;;;;;;2.72;0.65;;;;;;;24.97;49.55;98955.06;4129525;28;20287;-59
2022/07/04 08:44:41;;;;;;;3.17;0.80;;;;;;;25.04;46.23;98955.38;4132612;28;20722;-59
2022/07/04 08:46:42;;;;;;;3.30;0.65;;;;;;;25.15;46.88;98951.91;4123181;28;20743;-59
2022/07/04 08:48:52;;;;;;;2.17;0.65;;;;;;;25.19;44.56;98957.69;4130796;28;20213;-59
2022/07/04 08:50:57;;;;;;;3.30;0.88;;;;;;;25.25;44.60;98951.56;4111700;28;20213;-58
2022/07/04 08:53:01;;;;;;;1.00;0.60;;;;;;;25.38;44.34;98944.94;4125068;28;21092;-59
2022/07/04 08:59:49;;;;;;;1.40;0.60;;;;;;;24.73;44.35;98954.81;4124095;28;20231;-55
2022/07/04 09:01:51;;;;;;;4.50;0.95;;;;;;;25.16;47.32;98942.34;4131725;28;20273;-57
2022/07/04 09:03:53;;;;;;;2.53;0.60;;;;;;;25.25;45.98;98936.75;4116493;28;20269;-56
2022/07/04 09:05:58;;;;;;;2.60;0.70;;;;;;;25.43;44.23;98941.94;4117363;28;20644;-56
2022/07/04 09:08:01;;;;;;;0.95;0.65;;;;;;;24.65;45.03;98936.84;4131549;28;20212;-57
2022/07/04 09:10:03;;;;;;;3.28;0.70;;;;;;;24.63;44.69;98933.56;4113762;28;20234;-56
2022/07/04 09:12:05;;;;;;;1.25;0.63;;;;;;;24.54;45.27;98934.69;4131015;28;20205;-59
2022/07/04 09:14:07;;;;;;;2.45;0.73;;;;;;;24.44;44.89;98921.88;4127986;28;20224;-57
2022/07/04 09:16:08;;;;;;;3.53;0.60;;;;;;;24.78;45.55;98930.25;4131249;28;20304;-56
2022/07/04 09:18:26;;;;;;;2.65;0.85;;;;;;;25.29;44.21;98924.53;4126403;28;20240;-56
2022/07/04 09:20:30;;;;;;;1.33;0.60;;;;;;;25.64;46.12;98926.00;4116966;28;20241;-56
2022/07/04 09:22:32;;;;;;;7.80;0.60;;;;;;;25.89;43.34;98927.03;4128011;28;20233;-56
2022/07/04 09:24:51;;;;;;;1.13;0.60;;;;;;;25.46;43.64;98924.44;4128543;28;20205;-57
2022/07/04 09:26:52;;;;;;;4.38;1.05;;;;;;;25.73;43.40;98921.16;4114340;28;20209;-56
2022/07/04 09:28:56;;;;;;;3.03;0.63;;;;;;;25.84;43.37;98925.22;4125123;28;20331;-56
2022/07/04 09:30:58;;;;;;;1.73;0.80;;;;;;;25.82;42.95;98915.50;4125769;28;20237;-57
2022/07/04 09:33:00;;;;;;;1.52;0.70;;;;;;;26.26;43.65;98912.09;4121160;28;20943;-56
2022/07/04 09:35:23;;;;;;;2.50;0.70;;;;;;;26.33;41.93;98904.75;4124015;28;20300;-56
2022/07/04 09:37:36;;;;;;;4.50;0.63;;;;;;;26.07;43.58;98901.31;4121184;28;21182;-56
2022/07/04 09:39:37;;;;;;;1.25;0.65;;;;;;;26.33;40.95;98898.31;4105596;28;20283;-56
2022/07/04 09:42:03;;;;;;;1.02;0.68;;;;;;;26.46;43.09;98909.25;4132606;28;20241;-56
2022/07/04 09:44:05;;;;;;;1.02;0.57;;;;;;;26.58;42.72;98894.50;4128128;28;20223;-56
2022/07/04 09:46:07;;;;;;;1.25;0.60;;;;;;;27.04;43.30;98899.75;4132440;28;20331;-57
2022/07/04 09:48:08;;;;;;;1.55;0.60;;;;;;;26.91;41.09;98904.53;4128766;28;20229;-57